Time;durP1;ratioP1;P1;durP2;ratioP2;P2;SDS_P1;SDS_P2;PMS_P1;PMS_P2;Temp;Humidity;BMP_temperature;BMP_pressure;BME280_temperature;BME280_humidity;BME280_pressure;Samples;Min_cycle;Max_cycle;Signal;HPM_P1;HPM_P2
2021/07/21 00:01:36;;;;;;;14.48;9.90;;;;;;;22.77;69.00;98172.69;6100187;23;20350;-78
2021/07/21 00:04:02;;;;;;;13.90;10.70;;;;;;;22.73;69.68;98176.94;6076311;23;20145;-78
2021/07/21 00:06:28;;;;;;;12.93;10.48;;;;;;;22.61;70.15;98165.97;6100026;23;20022;-78
2021/07/21 00:08:54;;;;;;;20.52;9.85;;;;;;;22.62;70.31;98180.44;6124482;23;20024;-79
2021/07/21 00:14:14;;;;;;;18.40;11.38;;;;;;;22.52;70.33;98175.50;6124535;23;20018;-78
2021/07/21 00:16:43;;;;;;;19.77;11.63;;;;;;;22.55;70.75;98186.78;6147255;23;20029;-77
2021/07/21 00:21:53;;;;;;;17.13;12.65;;;;;;;22.45;71.02;98200.09;6124387;23;20026;-79
2021/07/21 00:24:19;;;;;;;15.77;13.52;;;;;;;22.32;71.56;98213.03;6124205;23;20152;-79
2021/07/21 00:26:45;;;;;;;18.50;15.63;;;;;;;22.09;71.91;98200.06;6124390;23;20041;-78
2021/07/21 00:29:11;;;;;;;21.65;15.63;;;;;;;21.96;72.20;98212.69;6077033;23;20061;-78
2021/07/21 00:31:37;;;;;;;19.33;15.93;;;;;;;21.94;72.50;98223.00;6099929;23;20113;-79
2021/07/21 00:34:03;;;;;;;20.27;15.50;;;;;;;21.76;72.77;98207.44;6076354;23;20021;-81
2021/07/21 00:36:30;;;;;;;23.63;13.75;;;;;;;21.69;73.22;98224.88;6104034;23;20017;-80
2021/07/21 00:38:57;;;;;;;21.92;12.85;;;;;;;21.57;73.71;98224.75;6129485;23;20092;-79
2021/07/21 00:41:24;;;;;;;;;;;;;;;21.60;73.74;98220.78;6106048;23;20017;-79
2021/07/21 00:43:51;;;;;;;18.80;12.15;;;;;;;21.53;73.51;98227.09;6080792;23;20344;-80
2021/07/21 00:46:17;;;;;;;17.70;12.15;;;;;;;21.51;73.84;98218.34;6104864;23;20027;-81
2021/07/21 00:48:43;;;;;;;19.63;12.38;;;;;;;21.69;73.46;98219.44;6130603;23;20389;-79
2021/07/21 00:51:09;;;;;;;14.60;11.95;;;;;;;21.82;72.84;98222.88;6131191;23;20148;-78
2021/07/21 00:53:35;;;;;;;18.63;11.15;;;;;;;21.98;72.68;98221.50;6131419;23;20025;-78
2021/07/21 00:56:02;;;;;;;23.00;12.00;;;;;;;22.10;71.79;98228.91;6131554;23;20017;-78
2021/07/21 00:58:29;;;;;;;15.98;12.15;;;;;;;22.20;71.52;98226.56;6131148;23;20461;-78
2021/07/21 01:00:57;;;;;;;19.70;11.10;;;;;;;22.19;71.39;98223.00;6083183;23;20041;-79
2021/07/21 01:03:24;;;;;;;19.92;11.82;;;;;;;22.38;71.19;98234.75;6131770;23;20017;-82
2021/07/21 01:05:50;;;;;;;16.52;10.85;;;;;;;22.46;70.53;98239.91;6083200;23;20026;-79
2021/07/21 01:08:16;;;;;;;16.70;10.40;;;;;;;22.57;70.28;98226.56;6106581;23;20457;-80
2021/07/21 01:11:55;;;;;;;22.67;11.55;;;;;;;22.65;69.85;98224.38;6091117;23;20052;-83
2021/07/21 01:14:42;;;;;;;20.38;11.05;;;;;;;22.78;69.49;98217.94;5969818;23;20079;-82
2021/07/21 01:17:13;;;;;;;18.45;9.95;;;;;;;22.90;69.01;98227.00;6111521;23;20057;-79
2021/07/21 01:19:45;;;;;;;14.95;8.88;;;;;;;22.88;68.72;98223.69;6131499;23;20021;-79
2021/07/21 01:22:17;;;;;;;15.73;9.82;;;;;;;22.89;68.47;98214.44;6083105;23;20465;-78
2021/07/21 01:24:59;;;;;;;18.23;9.05;;;;;;;22.93;68.20;98223.84;6132328;23;20017;-85
2021/07/21 01:27:31;;;;;;;15.93;8.40;;;;;;;22.85;68.44;98235.03;6132152;23;20017;-91
2021/07/21 01:30:08;;;;;;;18.30;9.32;;;;;;;22.88;68.71;98222.84;6131938;23;20021;-83
2021/07/21 01:32:38;;;;;;;17.63;9.00;;;;;;;22.93;68.28;98225.75;6084226;23;20461;-83
2021/07/21 01:35:19;;;;;;;15.48;8.70;;;;;;;22.96;68.23;98215.22;6107858;23;20072;-88
2021/07/21 01:37:51;;;;;;;16.13;8.25;;;;;;;22.99;67.66;98225.66;6126798;23;20094;-85
2021/07/21 01:40:29;;;;;;;17.27;9.70;;;;;;;22.89;67.69;98194.53;6102606;23;20026;-83
2021/07/21 01:42:59;;;;;;;19.70;9.85;;;;;;;23.16;67.71;98225.00;6126861;23;20038;-83
2021/07/21 01:45:28;;;;;;;17.65;8.80;;;;;;;23.26;67.42;98228.03;6126229;23;20026;-81
2021/07/21 01:47:55;;;;;;;15.20;8.98;;;;;;;23.30;67.15;98225.66;6101639;23;20021;-84
2021/07/21 01:50:22;;;;;;;11.65;8.25;;;;;;;23.41;66.88;98224.88;6102266;23;20089;-82
2021/07/21 01:52:51;;;;;;;18.30;8.30;;;;;;;23.45;66.87;98229.63;6102288;23;20018;-81
2021/07/21 01:55:21;;;;;;;18.92;9.20;;;;;;;23.46;66.41;98225.00;6079258;23;20033;-86
2021/07/21 01:57:51;;;;;;;21.02;9.60;;;;;;;23.57;66.31;98237.84;6127427;23;20029;-90
2021/07/21 02:00:42;;;;;;;13.02;8.30;;;;;;;23.69;65.83;98224.25;6148113;23;20096;-90
2021/07/21 02:03:26;;;;;;;20.20;8.93;;;;;;;23.84;65.57;98235.53;6081114;23;20026;-90
2021/07/21 02:05:59;;;;;;;16.50;9.38;;;;;;;23.72;65.50;98201.94;6126084;23;20014;-89
2021/07/21 02:08:28;;;;;;;17.83;9.95;;;;;;;23.81;65.29;98222.38;6076577;23;20025;-86
2021/07/21 02:11:26;;;;;;;21.52;9.52;;;;;;;23.97;65.30;98238.06;6117264;23;20069;-85
2021/07/21 02:13:55;;;;;;;20.40;8.90;;;;;;;23.97;64.77;98224.41;6126035;23;20021;-83
2021/07/21 02:16:37;;;;;;;11.23;9.25;;;;;;;24.08;64.50;98219.19;6079988;23;20105;-79
2021/07/21 02:19:06;;;;;;;17.57;8.50;;;;;;;24.24;64.53;98235.69;6102040;23;20018;-79
2021/07/21 02:21:42;;;;;;;14.47;9.47;;;;;;;24.35;64.03;98223.09;6101184;23;20018;-82
2021/07/21 02:24:08;;;;;;;16.27;9.30;;;;;;;24.45;64.12;98234.28;6101391;23;20336;-79
2021/07/21 02:26:53;;;;;;;16.48;10.23;;;;;;;24.44;63.73;98231.78;6105249;23;20018;-80
2021/07/21 02:29:22;;;;;;;15.38;10.13;;;;;;;24.57;63.43;98231.53;6101767;23;20017;-83
2021/07/21 02:32:19;;;;;;;21.23;9.57;;;;;;;24.71;63.39;98232.94;6105243;23;20101;-81
2021/07/21 02:34:45;;;;;;;24.83;10.77;;;;;;;24.76;63.13;98236.84;6083033;23;20048;-79
2021/07/21 02:37:16;;;;;;;20.15;11.15;;;;;;;24.72;62.75;98244.69;6125191;23;20018;-80
2021/07/21 02:39:46;;;;;;;18.77;10.93;;;;;;;24.66;62.59;98245.66;6102188;23;20478;-84
2021/07/21 02:42:12;;;;;;;20.17;10.30;;;;;;;24.50;63.38;98252.69;6078298;23;20018;-92
2021/07/21 02:44:43;;;;;;;22.80;10.98;;;;;;;24.35;63.63;98246.84;6057084;23;20438;-79
2021/07/21 02:47:10;;;;;;;20.73;12.43;;;;;;;24.32;63.97;98244.59;6101544;23;20018;-80
2021/07/21 02:49:38;;;;;;;23.38;12.40;;;;;;;24.27;64.57;98253.50;6101412;23;20026;-78
2021/07/21 02:52:17;;;;;;;27.70;12.80;;;;;;;24.21;65.01;98254.44;6102668;23;20029;-79
2021/07/21 02:54:55;;;;;;;30.13;14.23;;;;;;;24.10;65.28;98236.97;6103916;23;20028;-77
2021/07/21 02:57:27;;;;;;;26.80;12.80;;;;;;;24.23;65.18;98258.59;6077463;23;20465;-78
2021/07/21 02:59:56;;;;;;;22.25;14.95;;;;;;;24.18;65.40;98249.44;6101526;23;20022;-79
2021/07/21 03:02:22;;;;;;;27.95;13.95;;;;;;;24.18;65.56;98249.44;6078066;23;20557;-78
2021/07/21 03:04:50;;;;;;;21.05;12.98;;;;;;;24.28;65.59;98257.88;6101186;23;20023;-78
2021/07/21 03:07:25;;;;;;;26.42;13.68;;;;;;;24.29;65.30;98256.81;6148112;23;20014;-79
2021/07/21 03:09:52;;;;;;;29.70;13.15;;;;;;;24.32;65.35;98250.88;6087065;23;20536;-80
2021/07/21 03:12:19;;;;;;;31.10;13.48;;;;;;;24.41;65.39;98254.09;6119677;23;20021;-81
2021/07/21 03:15:07;;;;;;;26.92;14.23;;;;;;;24.46;64.84;98260.53;6140604;23;20032;-80
2021/07/21 03:17:35;;;;;;;22.85;12.20;;;;;;;24.52;64.75;98266.91;6128274;23;20077;-78
2021/07/21 03:20:04;;;;;;;24.98;11.52;;;;;;;24.53;64.60;98265.06;6100735;23;20025;-79
2021/07/21 03:22:39;;;;;;;22.48;11.70;;;;;;;24.62;64.36;98256.22;6102125;23;20454;-80
2021/07/21 03:25:15;;;;;;;25.67;11.40;;;;;;;24.69;63.92;98262.41;6056195;23;20053;-81
2021/07/21 03:27:50;;;;;;;24.33;13.38;;;;;;;24.84;63.77;98264.63;6079016;23;20101;-79
2021/07/21 03:30:23;;;;;;;35.25;11.20;;;;;;;24.88;63.54;98259.50;6124351;23;20462;-78
2021/07/21 03:32:56;;;;;;;17.83;10.82;;;;;;;24.95;63.20;98266.50;6079547;23;20018;-79
2021/07/21 03:35:25;;;;;;;21.52;11.15;;;;;;;25.08;61.83;98265.38;6075604;23;20044;-80
2021/07/21 03:37:53;;;;;;;22.15;9.70;;;;;;;25.20;61.60;98259.94;6109466;23;20454;-79
2021/07/21 03:40:23;;;;;;;13.25;10.02;;;;;;;25.28;61.02;98259.53;6071133;23;20022;-82
2021/07/21 03:43:09;;;;;;;28.48;10.20;;;;;;;25.22;61.22;98249.56;6073410;23;20066;-79
2021/07/21 03:45:44;;;;;;;19.10;10.10;;;;;;;25.24;61.56;98252.91;6072616;23;20161;-80
2021/07/21 03:48:10;;;;;;;19.98;10.18;;;;;;;25.41;61.40;98255.66;6070606;23;20105;-78
2021/07/21 03:50:59;;;;;;;16.95;11.07;;;;;;;25.40;60.85;98248.53;6094817;23;20032;-79
2021/07/21 03:53:31;;;;;;;18.52;10.10;;;;;;;25.58;60.85;98259.28;6071550;23;20110;-78
2021/07/21 03:55:58;;;;;;;19.67;9.80;;;;;;;25.65;60.60;98254.47;6071077;23;20066;-78
2021/07/21 03:58:56;;;;;;;19.25;10.70;;;;;;;25.77;60.46;98259.88;6074261;23;20026;-78
2021/07/21 04:01:25;;;;;;;14.80;9.20;;;;;;;25.71;59.40;98252.66;6070962;23;20022;-78
2021/07/21 04:03:54;;;;;;;15.65;9.15;;;;;;;25.71;59.40;98241.69;6094137;23;20493;-79
2021/07/21 04:06:23;;;;;;;18.65;9.75;;;;;;;25.79;59.35;98243.22;6071198;23;20403;-78
2021/07/21 04:09:11;;;;;;;23.98;9.93;;;;;;;25.77;59.17;98246.19;6050591;23;20049;-79
2021/07/21 04:11:40;;;;;;;15.07;9.40;;;;;;;25.71;59.29;98255.38;6046858;23;20479;-82
2021/07/21 04:14:10;;;;;;;21.23;10.45;;;;;;;25.92;59.34;98254.69;6072130;23;20077;-81
2021/07/21 04:16:54;;;;;;;15.43;9.57;;;;;;;25.80;58.93;98250.34;6096103;23;20026;-82
2021/07/21 04:19:20;;;;;;;14.52;8.45;;;;;;;25.62;58.73;98265.09;6095850;23;20101;-81
2021/07/21 04:21:49;;;;;;;22.10;8.70;;;;;;;25.55;59.76;98261.69;6095798;23;20030;-82
2021/07/21 04:24:17;;;;;;;;;;;;;;;25.67;59.73;98268.72;6048314;23;20166;-82
2021/07/21 04:26:43;;;;;;;18.83;8.68;;;;;;;25.72;59.40;98269.91;6095298;23;19957;-90
2021/07/21 04:29:14;;;;;;;13.70;8.55;;;;;;;25.52;59.00;98275.84;6047501;23;20022;-79
2021/07/21 04:31:40;;;;;;;13.55;7.85;;;;;;;25.48;58.90;98266.47;6071310;23;20510;-80
2021/07/21 04:34:06;;;;;;;16.70;8.02;;;;;;;25.60;58.92;98272.69;6071675;23;20032;-81
2021/07/21 04:36:34;;;;;;;15.95;8.52;;;;;;;25.68;58.82;98280.50;6104035;23;20022;-80
2021/07/21 04:39:02;;;;;;;13.00;7.57;;;;;;;25.78;58.54;98280.72;6081537;23;20029;-82
2021/07/21 04:41:28;;;;;;;21.45;9.02;;;;;;;25.83;58.11;98275.31;6129320;23;20115;-82
2021/07/21 04:44:14;;;;;;;17.08;7.70;;;;;;;25.84;57.84;98298.91;6108011;23;20477;-80
2021/07/21 04:46:52;;;;;;;;;;;;;;;26.00;57.59;98293.69;6084642;23;20025;-80
2021/07/21 04:49:19;;;;;;;12.10;8.25;;;;;;;25.94;57.69;98289.19;6128789;23;20341;-81
2021/07/21 04:51:47;;;;;;;19.03;8.40;;;;;;;26.14;57.66;98289.56;6104573;23;20053;-77
2021/07/21 04:54:19;;;;;;;14.27;8.00;;;;;;;26.32;57.53;98286.53;6127303;23;20024;-78
2021/07/21 04:56:49;;;;;;;20.33;8.13;;;;;;;26.53;56.53;98298.69;6102831;23;20014;-78
2021/07/21 04:59:24;;;;;;;16.08;7.63;;;;;;;26.44;56.47;98285.59;6059647;23;20032;-76
2021/07/21 05:01:51;;;;;;;17.70;8.75;;;;;;;26.57;56.54;98304.50;6128071;23;20104;-77
2021/07/21 05:04:17;;;;;;;13.77;8.70;;;;;;;26.91;55.92;98304.41;6104868;23;20029;-77
2021/07/21 05:07:07;;;;;;;20.40;9.13;;;;;;;27.21;55.02;98304.84;6092819;23;20013;-77
2021/07/21 05:09:44;;;;;;;12.50;8.80;;;;;;;27.44;54.45;98303.72;6105336;23;20021;-76
2021/07/21 05:12:11;;;;;;;20.77;8.20;;;;;;;27.65;53.56;98303.97;6104732;23;20097;-75
2021/07/21 05:14:43;;;;;;;20.27;15.27;;;;;;;27.62;53.88;98302.56;6130514;23;20013;-77
2021/07/21 05:17:28;;;;;;;12.73;8.80;;;;;;;27.44;53.94;98298.22;6131791;23;20030;-80
2021/07/21 05:19:57;;;;;;;14.63;8.75;;;;;;;27.25;54.33;98300.50;6128938;23;20017;-78
2021/07/21 05:22:23;;;;;;;17.55;8.50;;;;;;;27.35;54.17;98297.88;6081069;23;20022;-85
2021/07/21 05:24:50;;;;;;;11.50;8.52;;;;;;;27.35;54.50;98291.56;6079369;23;20068;-77
2021/07/21 05:27:18;;;;;;;14.00;7.65;;;;;;;27.53;54.15;98295.84;6128754;23;20067;-84
2021/07/21 05:29:45;;;;;;;14.75;7.82;;;;;;;27.54;54.06;98305.75;6079927;23;20472;-79
2021/07/21 05:32:26;;;;;;;10.05;7.10;;;;;;;27.47;53.65;98318.84;6128905;23;20017;-81
2021/07/21 05:35:04;;;;;;;11.25;7.22;;;;;;;27.31;53.37;98315.13;6084289;23;20017;-87
2021/07/21 05:37:49;;;;;;;12.13;6.80;;;;;;;27.09;53.71;98313.16;6145824;23;20018;-80
2021/07/21 05:40:20;;;;;;;10.73;7.25;;;;;;;27.17;53.84;98309.19;6077363;23;20026;-80
2021/07/21 05:43:03;;;;;;;13.07;7.47;;;;;;;27.38;53.39;98310.22;6101826;23;20021;-88
2021/07/21 05:50:32;;;;;;;11.43;6.40;;;;;;;27.53;52.60;98307.69;6002433;23;20517;-80
2021/07/21 05:54:40;;;;;;;;;;;;;;;;;;;;;
2021/07/21 05:58:36;;;;;;;10.45;5.97;;;;;;;27.36;52.96;98274.81;5969389;24;20346;-79
2021/07/21 06:02:21;;;;;;;12.68;5.82;;;;;;;27.24;50.57;98270.56;5958844;24;20476;-79
2021/07/21 06:09:33;;;;;;;13.55;5.68;;;;;;;27.83;50.23;98322.81;6002783;23;20023;-77
2021/07/21 06:12:53;;;;;;;16.30;5.90;;;;;;;27.61;50.08;98267.97;5970123;23;20027;-78
2021/07/21 06:16:09;;;;;;;13.40;5.38;;;;;;;28.01;49.38;98280.41;5986198;23;20124;-78
2021/07/21 06:53:29;;;;;;;;;;;;;;;;;;;;;
2021/07/21 06:57:31;;;;;;;8.43;4.80;;;;;;;29.57;43.67;98250.50;6003311;23;20158;-80
2021/07/21 07:00:37;;;;;;;;;;;;;;;;;;;;;
2021/07/21 07:03:50;;;;;;;8.80;4.90;;;;;;;29.82;43.97;98246.13;6002102;23;20030;-79
2021/07/21 07:06:47;;;;;;;10.10;4.45;;;;;;;29.75;42.07;98247.25;6005792;23;20027;-79
2021/07/21 07:09:36;;;;;;;10.23;4.50;;;;;;;29.43;43.14;98257.63;6045325;23;20578;-79
2021/07/21 07:12:33;;;;;;;10.25;5.82;;;;;;;29.83;42.89;98294.63;6062832;23;20357;-79
2021/07/21 07:15:24;;;;;;;13.60;4.50;;;;;;;29.80;42.30;98254.69;6127490;23;20028;-77
2021/07/21 07:18:09;;;;;;;11.05;4.53;;;;;;;29.72;42.60;98282.78;6078909;23;20468;-78
2021/07/21 07:20:50;;;;;;;11.80;4.85;;;;;;;29.75;42.58;98288.56;6127312;23;20024;-79
2021/07/21 07:23:45;;;;;;;7.72;4.28;;;;;;;29.52;43.22;98278.00;6127047;23;20437;-77
2021/07/21 07:26:13;;;;;;;9.05;4.72;;;;;;;29.45;43.30;98263.66;6104194;23;20381;-76
2021/07/21 07:28:45;;;;;;;7.13;4.00;;;;;;;30.12;41.57;98275.63;6151446;23;20021;-78
2021/07/21 07:31:14;;;;;;;6.28;4.00;;;;;;;30.28;41.11;98285.59;6079573;23;20096;-77
2021/07/21 07:33:58;;;;;;;;;;;;;;;;;;;;;
2021/07/21 07:36:37;;;;;;;9.18;4.80;;;;;;;30.34;40.47;98280.88;6105365;23;20346;-78
2021/07/21 07:39:07;;;;;;;6.68;4.07;;;;;;;30.30;40.64;98288.88;6104675;23;20053;-81
2021/07/21 07:41:39;;;;;;;11.52;4.10;;;;;;;30.21;39.65;98287.78;6103038;23;20013;-80
2021/07/21 07:44:08;;;;;;;12.20;4.50;;;;;;;29.93;39.90;98275.34;6103138;23;20044;-79
2021/07/21 07:46:42;;;;;;;8.25;4.00;;;;;;;29.75;40.34;98269.28;6101764;23;20048;-79
2021/07/21 07:49:10;;;;;;;11.35;4.18;;;;;;;30.08;40.27;98297.38;6127438;23;20128;-78
2021/07/21 07:51:48;;;;;;;9.52;4.43;;;;;;;30.29;39.30;98292.75;6128674;23;20017;-79
2021/07/21 07:54:15;;;;;;;11.30;4.32;;;;;;;30.79;38.83;98304.81;6103614;23;20021;-79
2021/07/21 07:56:41;;;;;;;7.65;4.20;;;;;;;30.60;38.62;98301.78;6080792;23;20017;-78
2021/07/21 07:59:07;;;;;;;8.48;4.40;;;;;;;30.82;39.08;98281.38;6104696;23;20060;-79
2021/07/21 08:01:33;;;;;;;7.45;4.03;;;;;;;31.39;38.58;98285.56;6129045;23;20045;-78
2021/07/21 08:03:59;;;;;;;6.38;4.05;;;;;;;31.07;37.37;98284.03;6105032;23;20032;-78
2021/07/21 08:06:25;;;;;;;13.45;4.82;;;;;;;31.02;38.17;98295.09;6153064;23;20057;-79
2021/07/21 08:08:51;;;;;;;8.45;3.90;;;;;;;31.48;37.78;98294.91;6104874;23;20032;-78
2021/07/21 08:11:17;;;;;;;9.52;4.32;;;;;;;31.17;38.54;98308.81;6080526;23;20361;-78
2021/07/21 08:13:43;;;;;;;7.05;3.70;;;;;;;31.05;38.58;98294.53;6079574;23;20021;-77
2021/07/21 08:16:10;;;;;;;16.52;4.32;;;;;;;31.03;38.63;98302.28;6128980;23;20075;-78
2021/07/21 08:18:36;;;;;;;7.40;4.63;;;;;;;31.59;38.12;98304.78;6057018;23;20017;-77
2021/07/21 08:21:02;;;;;;;9.52;4.35;;;;;;;32.38;36.93;98294.59;6129345;23;20121;-77
2021/07/21 08:23:29;;;;;;;8.05;4.18;;;;;;;32.51;36.70;98290.31;6104670;23;20018;-77
2021/07/21 08:25:55;;;;;;;14.38;4.07;;;;;;;32.49;36.50;98287.00;6080846;23;20025;-77
2021/07/21 08:28:21;;;;;;;18.63;5.13;;;;;;;32.36;36.49;98295.97;6080995;23;20020;-78
2021/07/21 08:30:47;;;;;;;7.75;4.28;;;;;;;31.72;37.34;98294.22;6128920;23;20045;-78
2021/07/21 08:33:13;;;;;;;9.30;4.05;;;;;;;31.49;37.88;98298.53;6104574;23;20437;-80
2021/07/21 08:35:39;;;;;;;12.85;4.28;;;;;;;31.81;37.78;98273.16;6080858;23;20448;-79
2021/07/21 08:38:06;;;;;;;11.30;5.15;;;;;;;32.27;36.82;98292.16;6104545;23;20032;-80
2021/07/21 08:40:47;;;;;;;14.18;4.70;;;;;;;32.23;37.19;98285.56;6128436;23;20017;-78
2021/07/21 08:43:15;;;;;;;13.43;4.22;;;;;;;32.22;36.41;98272.88;6153445;23;20033;-78
2021/07/21 08:45:41;;;;;;;8.75;4.18;;;;;;;32.55;35.75;98274.78;6129082;23;20022;-80
2021/07/21 08:48:07;;;;;;;7.75;4.10;;;;;;;33.13;34.88;98271.94;6153498;23;20022;-82
2021/07/21 08:50:33;;;;;;;50.30;35.15;;;;;;;33.59;34.51;98270.53;6129247;23;20104;-82
2021/07/21 08:53:00;;;;;;;13.30;6.28;;;;;;;33.78;34.13;98271.34;6139320;23;20108;-82
2021/07/21 08:55:27;;;;;;;15.60;4.60;;;;;;;33.43;33.90;98278.19;6146157;23;20466;-80
2021/07/21 08:57:53;;;;;;;9.70;4.80;;;;;;;32.99;34.93;98281.28;6108120;23;20077;-78
2021/07/21 09:04:20;;;;;;;12.05;4.97;;;;;;;32.92;34.85;98245.59;6111834;23;20052;-79
2021/07/21 09:07:16;;;;;;;10.32;5.65;;;;;;;33.04;34.92;98229.41;6087412;23;20024;-78
2021/07/21 09:13:24;;;;;;;9.27;4.18;;;;;;;34.10;33.15;98266.16;6122598;23;20029;-78
2021/07/21 09:15:59;;;;;;;8.95;5.10;;;;;;;34.42;32.64;98257.84;6129013;23;20116;-79
2021/07/21 09:18:57;;;;;;;9.05;4.45;;;;;;;34.49;32.54;98249.97;6130866;23;20096;-78
2021/07/21 09:25:23;;;;;;;11.43;4.30;;;;;;;33.64;33.35;98247.47;5982417;23;20047;-77
2021/07/21 09:27:51;;;;;;;10.02;4.63;;;;;;;33.49;33.77;98271.50;5978484;24;20020;-75
2021/07/21 09:30:51;;;;;;;12.45;4.45;;;;;;;34.01;33.37;98228.03;6088195;23;20028;-78
2021/07/21 09:34:25;;;;;;;8.85;4.07;;;;;;;34.69;32.09;98247.94;5987447;23;20028;-78
2021/07/21 09:37:38;;;;;;;;;;;;;;;;;;;;;
2021/07/21 09:40:25;;;;;;;7.47;4.15;;;;;;;33.81;32.29;98267.13;6154838;23;20394;-78
2021/07/21 09:42:52;;;;;;;8.63;3.90;;;;;;;33.57;32.50;98270.81;6105793;23;20096;-77
2021/07/21 09:45:20;;;;;;;8.88;3.92;;;;;;;33.63;32.51;98262.44;6105548;23;20468;-76
2021/07/21 09:47:50;;;;;;;13.60;4.03;;;;;;;34.23;31.63;98263.44;6104948;23;20520;-78
2021/07/21 09:50:23;;;;;;;8.77;4.25;;;;;;;34.61;31.67;98257.78;6130190;23;20108;-77
2021/07/21 09:52:57;;;;;;;7.60;4.43;;;;;;;34.80;30.56;98263.25;6106855;23;20018;-78
2021/07/21 09:55:24;;;;;;;5.35;3.92;;;;;;;34.65;30.49;98269.09;6130342;23;20021;-77
2021/07/21 09:57:56;;;;;;;8.02;4.18;;;;;;;34.72;30.59;98264.81;6130633;23;20021;-80
2021/07/21 10:00:27;;;;;;;8.38;4.10;;;;;;;35.09;29.93;98248.25;6082925;23;20021;-81
2021/07/21 10:03:19;;;;;;;7.43;3.63;;;;;;;35.72;29.09;98248.25;6130017;23;20021;-79
2021/07/21 10:06:06;;;;;;;13.55;4.30;;;;;;;36.17;29.35;98264.16;6156477;23;20045;-92
2021/07/21 10:08:47;;;;;;;11.02;4.25;;;;;;;36.13;28.70;98265.94;6155532;23;20069;-79
2021/07/21 10:11:33;;;;;;;6.35;4.13;;;;;;;36.34;28.80;98264.28;6155207;23;20393;-91
2021/07/21 10:14:02;;;;;;;11.10;4.65;;;;;;;36.42;28.55;98263.50;6155095;23;20017;-78
2021/07/21 10:16:44;;;;;;;6.93;3.90;;;;;;;36.49;28.57;98267.84;6156582;23;20025;-78
2021/07/21 10:19:19;;;;;;;6.28;4.00;;;;;;;36.46;28.64;98264.53;6152544;23;20017;-80
2021/07/21 10:22:02;;;;;;;10.30;3.85;;;;;;;36.24;28.82;98256.19;6104367;23;20025;-80
2021/07/21 10:25:18;;;;;;;9.57;4.18;;;;;;;35.29;30.25;98264.50;6127550;23;20048;-90
2021/07/21 10:27:58;;;;;;;8.13;4.00;;;;;;;34.67;30.65;98241.84;6122112;23;20024;-81
2021/07/21 10:30:35;;;;;;;8.65;4.28;;;;;;;35.08;30.04;98252.16;6106469;23;20017;-81
2021/07/21 10:33:17;;;;;;;;;;;;;;;;;;;;;
2021/07/21 10:36:17;;;;;;;7.40;4.28;;;;;;;36.06;28.92;98248.84;6129692;23;20028;-81
2021/07/21 10:39:52;;;;;;;;;;;;;;;;;;;;;
2021/07/21 10:43:56;;;;;;;;;;;;;;;;;;;;;
2021/07/21 11:21:54;;;;;;;;;;;;;;;;;;;;;
2021/07/21 11:30:02;;;;;;;10.95;5.32;;;;;;;36.45;31.32;98278.75;6034370;23;20125;-86
2021/07/21 11:33:54;;;;;;;;;;;;;;;;;;;;;
2021/07/21 11:46:19;;;;;;;;;;;;;;;;;;;;;
2021/07/21 11:50:03;;;;;;;;;;;;;;;37.08;29.93;98285.94;5851433;24;20060;-87
2021/07/21 11:54:22;;;;;;;11.85;4.60;;;;;;;38.14;28.19;98260.69;5861192;24;20332;-87
2021/07/21 11:58:07;;;;;;;;;;;;;;;;;;;;;
2021/07/21 12:06:42;;;;;;;;;;;;;;;;;;;;;
2021/07/21 12:28:15;;;;;;;9.73;4.03;;;;;;;40.08;24.18;98267.50;5949901;24;20092;-86
2021/07/21 12:57:56;;;;;;;6.70;4.00;;;;;;;40.03;22.70;98285.31;5713100;25;20036;-84
2021/07/21 13:24:33;;;;;;;;;;;;;;;;;;;;;
2021/07/21 14:22:29;;;;;;;;;;;;;;;;;;;;;
2021/07/21 14:26:06;;;;;;;7.07;4.32;;;;;;;38.51;22.50;98297.44;5976385;24;20249;-84
2021/07/21 15:06:43;;;;;;;9.80;5.43;;;;;;;39.47;22.91;98281.13;6154937;23;20043;-80
2021/07/21 15:11:12;;;;;;;;;;;;;;;;;;;;;
2021/07/21 15:14:15;;;;;;;12.38;4.90;;;;;;;38.58;23.67;98283.78;6001328;23;20031;-78
2021/07/21 15:16:52;;;;;;;14.43;4.88;;;;;;;37.93;24.48;98254.16;6001361;23;20078;-79
2021/07/21 15:20:01;;;;;;;10.57;4.68;;;;;;;37.70;24.59;98284.97;6111447;22;20407;-81
2021/07/21 15:22:50;;;;;;;;;;;;;;;;;;;;;
2021/07/21 15:52:36;;;;;;;11.18;6.60;;;;;;;32.18;33.22;98289.22;6090208;23;20462;-83
2021/07/21 15:55:58;;;;;;;;;;;;;;;;;;;;;
2021/07/21 15:58:44;;;;;;;13.63;7.32;;;;;;;30.94;34.95;98255.09;6159497;23;20047;-79
2021/07/21 16:01:54;;;;;;;13.30;6.28;;;;;;;30.94;35.10;98288.22;6126662;23;20041;-81
2021/07/21 16:04:30;;;;;;;13.63;6.50;;;;;;;30.63;35.83;98270.91;6127955;23;20020;-79
2021/07/21 16:07:21;;;;;;;9.18;6.18;;;;;;;30.56;35.90;98284.16;6155490;23;20029;-82
2021/07/21 16:10:08;;;;;;;;;;;;;;;30.48;36.55;98293.00;6299971;22;20115;-78
2021/07/21 16:13:04;;;;;;;20.25;7.10;;;;;;;30.32;36.55;98296.88;6291432;22;20021;-93
2021/07/21 16:15:39;;;;;;;12.48;6.57;;;;;;;29.96;36.96;98252.75;6254922;22;20017;-80
2021/07/21 16:22:06;;;;;;;13.90;6.38;;;;;;;29.78;37.91;98303.69;6179101;22;20468;-78
2021/07/21 16:24:35;;;;;;;18.48;6.60;;;;;;;29.62;38.16;98299.25;6254832;22;20021;-80
2021/07/21 16:27:06;;;;;;;12.48;6.32;;;;;;;29.32;38.20;98277.94;6228628;22;20539;-77
2021/07/21 16:29:58;;;;;;;16.80;7.30;;;;;;;29.23;38.43;98297.75;6260024;22;20064;-79
2021/07/21 16:32:25;;;;;;;20.98;7.20;;;;;;;29.25;38.29;98308.47;6178307;22;20045;-80
2021/07/21 16:34:58;;;;;;;16.23;7.32;;;;;;;29.11;38.40;98299.91;6277214;22;20017;-79
2021/07/21 16:37:30;;;;;;;14.50;6.90;;;;;;;28.89;38.99;98282.72;6277364;22;20044;-84
2021/07/21 16:40:45;;;;;;;16.98;6.95;;;;;;;28.95;38.85;98315.47;6195399;22;20032;-79
2021/07/21 16:43:22;;;;;;;11.05;6.72;;;;;;;28.85;38.79;98306.31;6229587;22;20029;-81
2021/07/21 16:45:57;;;;;;;11.32;6.78;;;;;;;28.80;39.23;98309.88;6229862;22;20051;-79
2021/07/21 16:48:28;;;;;;;17.15;7.57;;;;;;;28.64;39.53;98292.47;6256171;22;20097;-78
2021/07/21 16:51:08;;;;;;;22.27;7.72;;;;;;;28.70;39.63;98315.34;6248993;22;20096;-77
2021/07/21 16:53:56;;;;;;;20.67;7.32;;;;;;;28.55;39.71;98308.63;6237307;22;20017;-78
2021/07/21 16:56:35;;;;;;;14.73;7.18;;;;;;;28.41;39.95;98292.88;6231526;22;20027;-78
2021/07/21 16:59:12;;;;;;;21.70;7.53;;;;;;;28.29;40.13;98284.78;6254113;22;20021;-78
2021/07/21 17:01:49;;;;;;;11.63;6.78;;;;;;;28.30;40.00;98289.19;6276484;22;20432;-80
2021/07/21 17:04:16;;;;;;;11.10;6.47;;;;;;;28.39;40.46;98314.28;6250579;22;20037;-78
2021/07/21 17:06:44;;;;;;;10.70;6.30;;;;;;;28.33;40.51;98316.13;6229430;22;20416;-77
2021/07/21 17:09:10;;;;;;;14.20;6.93;;;;;;;28.24;40.40;98309.47;6229573;22;20032;-80
2021/07/21 17:11:37;;;;;;;16.45;7.60;;;;;;;28.18;40.74;98314.09;6204708;22;20025;-79
2021/07/21 17:14:06;;;;;;;18.23;8.30;;;;;;;28.13;40.42;98311.28;6205720;22;20029;-79
2021/07/21 17:16:38;;;;;;;16.42;8.75;;;;;;;28.05;40.68;98312.59;6230128;22;20020;-79
2021/07/21 17:19:05;;;;;;;14.85;7.88;;;;;;;27.99;40.71;98310.91;6204415;22;20028;-79
2021/07/21 17:21:35;;;;;;;19.02;7.60;;;;;;;27.96;40.68;98311.44;6229645;22;20025;-79
2021/07/21 17:24:01;;;;;;;14.38;7.15;;;;;;;27.84;40.63;98297.03;6256030;22;20032;-77
2021/07/21 17:26:31;;;;;;;15.32;7.20;;;;;;;27.89;40.77;98320.97;6231019;22;20120;-77
2021/07/21 17:28:59;;;;;;;18.67;7.75;;;;;;;27.88;40.46;98319.31;6205379;22;20021;-77
2021/07/21 17:31:25;;;;;;;19.77;7.57;;;;;;;27.86;40.73;98313.25;6254534;22;20086;-79
2021/07/21 17:33:52;;;;;;;13.73;7.47;;;;;;;27.65;40.62;98280.06;6229078;22;20074;-79
2021/07/21 17:36:22;;;;;;;15.23;7.22;;;;;;;27.82;40.66;98311.00;6227991;22;20020;-79
2021/07/21 17:38:56;;;;;;;18.50;7.20;;;;;;;27.72;40.58;98299.91;6229761;22;20024;-79
2021/07/21 17:41:25;;;;;;;21.80;6.82;;;;;;;27.79;40.70;98310.69;6233124;22;20021;-79
2021/07/21 17:43:54;;;;;;;;;;;;;;;27.76;40.84;98316.75;6205882;22;20028;-78
2021/07/21 17:46:26;;;;;;;12.02;6.40;;;;;;;27.50;41.03;98291.72;6137240;22;20202;-76
2021/07/21 17:48:54;;;;;;;8.30;6.18;;;;;;;27.62;40.97;98313.53;6230550;22;20024;-78
2021/07/21 17:51:23;;;;;;;11.70;7.13;;;;;;;27.45;41.21;98297.13;6254799;22;20029;-78
2021/07/21 17:54:09;;;;;;;10.15;6.60;;;;;;;27.41;41.45;98295.16;6245664;22;20052;-80
2021/07/21 17:56:38;;;;;;;11.32;6.30;;;;;;;27.44;41.40;98294.66;6209632;22;20017;-81